createdAt,value
2018-12-12T00:02:24.484Z,100246.97
2018-12-12T00:04:51.978Z,100247.45
2018-12-12T00:07:19.417Z,100254.17
2018-12-12T00:09:46.838Z,100251.61
2018-12-12T00:12:14.282Z,100259.67
2018-12-12T00:14:41.953Z,100249.36
2018-12-12T00:17:09.366Z,100243.00
2018-12-12T00:19:36.858Z,100252.83
2018-12-12T00:22:04.280Z,100257.28
2018-12-12T00:24:31.726Z,100262.64
2018-12-12T00:26:59.181Z,100263.84
2018-12-12T00:29:26.621Z,100265.94
2018-12-12T00:31:54.067Z,100268.22
2018-12-12T00:34:21.499Z,100262.43
2018-12-12T00:36:48.952Z,100263.49
2018-12-12T00:39:16.363Z,100262.86
2018-12-12T00:41:43.869Z,100257.74
2018-12-12T00:44:12.093Z,100264.85
2018-12-12T00:46:39.622Z,100262.52
2018-12-12T00:49:07.073Z,100260.71
2018-12-12T00:51:34.530Z,100258.53
2018-12-12T00:54:01.971Z,100258.92
2018-12-12T00:56:29.433Z,100253.68
2018-12-12T00:58:56.860Z,100250.41
2018-12-12T01:01:24.301Z,100243.45
2018-12-12T01:03:51.756Z,100243.40
2018-12-12T01:06:20.047Z,100246.16
2018-12-12T01:08:47.648Z,100252.28
2018-12-12T01:11:20.548Z,100249.91
2018-12-12T01:13:47.995Z,100253.89
2018-12-12T01:16:15.426Z,100254.81
2018-12-12T01:18:42.867Z,100261.88
2018-12-12T01:21:10.313Z,100274.59
2018-12-12T01:23:37.746Z,100270.20
2018-12-12T01:26:05.167Z,100273.49
2018-12-12T01:28:32.598Z,100271.44
2018-12-12T01:31:00.048Z,100274.13
2018-12-12T01:33:27.479Z,100268.83
2018-12-12T01:35:54.938Z,100264.89
2018-12-12T01:38:22.367Z,100264.13
2018-12-12T01:40:49.849Z,100259.25
2018-12-12T01:43:17.291Z,100260.38
2018-12-12T01:45:44.746Z,100265.06
2018-12-12T01:48:12.206Z,100253.75
2018-12-12T01:50:39.630Z,100257.22
2018-12-12T01:53:07.067Z,100261.61
2018-12-12T01:55:34.542Z,100269.71
2018-12-12T01:58:02.010Z,100273.10
2018-12-12T02:00:29.461Z,100267.00
2018-12-12T02:02:58.027Z,100275.91
2018-12-12T02:05:25.676Z,100276.05
2018-12-12T02:07:53.130Z,100281.14
2018-12-12T02:10:20.582Z,100281.89
2018-12-12T02:12:59.680Z,100278.31
2018-12-12T02:15:27.118Z,100274.68
2018-12-12T02:17:54.530Z,100279.50
2018-12-12T02:20:22.029Z,100283.84
2018-12-12T02:22:49.469Z,100284.34
2018-12-12T02:25:16.917Z,100293.70
2018-12-12T02:27:44.339Z,100292.74
2018-12-12T02:30:11.813Z,100285.49
2018-12-12T02:32:39.267Z,100291.80
2018-12-12T02:35:06.697Z,100293.89
2018-12-12T02:37:34.141Z,100303.95
2018-12-12T02:40:01.556Z,100302.63
2018-12-12T02:42:29.013Z,100298.37
2018-12-12T02:44:56.469Z,100302.06
2018-12-12T02:47:23.918Z,100301.59
2018-12-12T02:49:51.354Z,100296.70
2018-12-12T02:52:19.807Z,100284.77
2018-12-12T02:54:47.356Z,100288.61
2018-12-12T02:57:14.771Z,100280.87
2018-12-12T02:59:42.203Z,100283.41
2018-12-12T03:02:09.623Z,100289.98
2018-12-12T03:04:37.064Z,100290.44
2018-12-12T03:07:04.493Z,100296.05
2018-12-12T03:09:31.923Z,100295.22
2018-12-12T03:11:59.348Z,100294.83
2018-12-12T03:14:26.783Z,100295.55
2018-12-12T03:16:54.246Z,100297.13
2018-12-12T03:19:21.679Z,100297.36
2018-12-12T03:21:49.114Z,100297.45
2018-12-12T03:24:16.546Z,100293.46
2018-12-12T03:26:43.978Z,100299.73
2018-12-12T03:29:11.394Z,100294.95
2018-12-12T03:31:38.840Z,100296.20
2018-12-12T03:34:06.273Z,100291.76
2018-12-12T03:36:33.722Z,100301.11
2018-12-12T03:39:01.158Z,100310.44
2018-12-12T03:41:28.603Z,100311.73
2018-12-12T03:43:56.019Z,100305.91
2018-12-12T03:46:23.472Z,100301.14
2018-12-12T03:48:50.925Z,100303.42
2018-12-12T03:51:18.375Z,100309.67
2018-12-12T03:53:49.128Z,100312.50
2018-12-12T03:56:16.624Z,100313.63
2018-12-12T03:58:44.085Z,100312.47
2018-12-12T04:01:11.521Z,100317.63
2018-12-12T04:03:38.953Z,100317.15
2018-12-12T04:06:06.382Z,100312.69
2018-12-12T04:08:33.946Z,100307.52
2018-12-12T04:11:01.377Z,100305.37
2018-12-12T04:13:28.817Z,100305.58
2018-12-12T04:15:57.620Z,100304.65
2018-12-12T04:18:25.052Z,100300.17
2018-12-12T04:20:52.504Z,100303.52
2018-12-12T04:23:19.934Z,100302.33
2018-12-12T04:25:47.388Z,100305.40
2018-12-12T04:28:14.814Z,100300.89
2018-12-12T04:30:42.314Z,100303.61
2018-12-12T04:33:09.731Z,100304.70
2018-12-12T04:35:37.166Z,100304.85
2018-12-12T04:38:04.665Z,100305.86
2018-12-12T04:40:32.108Z,100303.59
2018-12-12T04:42:59.533Z,100305.42
2018-12-12T04:45:27.012Z,100307.64
2018-12-12T04:47:54.457Z,100300.89
2018-12-12T04:50:21.889Z,100298.02
2018-12-12T04:52:49.331Z,100301.16
2018-12-12T04:55:16.782Z,100303.03
2018-12-12T04:57:44.868Z,100302.81
2018-12-12T05:00:11.708Z,100304.26
2018-12-12T05:02:39.170Z,100303.88
2018-12-12T05:05:06.589Z,100306.29
2018-12-12T05:07:34.025Z,100304.27
2018-12-12T05:10:01.485Z,100310.66
2018-12-12T05:12:28.910Z,100311.30
2018-12-12T05:14:56.369Z,100312.32
2018-12-12T05:17:23.825Z,100315.59
2018-12-12T05:19:51.243Z,100313.00
2018-12-12T05:22:18.688Z,100322.92
2018-12-12T05:24:46.141Z,100319.00
2018-12-12T05:27:13.610Z,100323.30
2018-12-12T05:29:41.038Z,100313.19
2018-12-12T05:32:08.483Z,100316.69
2018-12-12T05:34:35.900Z,100317.69
2018-12-12T05:37:03.330Z,100319.88
2018-12-12T05:39:30.785Z,100327.09
2018-12-12T05:41:58.210Z,100325.13
2018-12-12T05:44:25.646Z,100328.48
2018-12-12T05:46:53.103Z,100325.50
2018-12-12T05:49:20.543Z,100331.69
2018-12-12T05:51:47.964Z,100332.05
2018-12-12T05:54:15.407Z,100321.98
2018-12-12T05:56:42.822Z,100321.55
2018-12-12T05:59:10.326Z,100325.72
2018-12-12T06:01:37.783Z,100324.67
2018-12-12T06:04:05.207Z,100329.41
2018-12-12T06:06:32.658Z,100330.73
2018-12-12T06:09:00.125Z,100328.14
2018-12-12T06:11:27.599Z,100333.84
2018-12-12T06:13:55.030Z,100333.74
2018-12-12T06:16:22.469Z,100331.12
2018-12-12T06:18:49.947Z,100337.44
2018-12-12T06:21:17.401Z,100329.92
2018-12-12T06:23:44.831Z,100335.63
2018-12-12T06:26:12.289Z,100333.56
2018-12-12T06:28:39.719Z,100337.91
2018-12-12T06:31:07.149Z,100340.23
2018-12-12T06:33:34.582Z,100343.59
2018-12-12T06:36:02.003Z,100346.72
2018-12-12T06:38:29.449Z,100347.48
2018-12-12T06:40:56.975Z,100342.77
2018-12-12T06:43:24.410Z,100345.54
2018-12-12T06:45:51.823Z,100350.91
2018-12-12T06:48:19.282Z,100351.30
2018-12-12T06:50:46.699Z,100354.27
2018-12-12T06:53:14.132Z,100352.03
2018-12-12T06:55:41.547Z,100348.28
2018-12-12T06:58:08.982Z,100350.69
2018-12-12T07:00:36.429Z,100353.66
2018-12-12T07:03:03.923Z,100354.94
2018-12-12T07:05:31.352Z,100352.68
2018-12-12T07:07:58.823Z,100359.61
2018-12-12T07:10:26.382Z,100357.47
2018-12-12T07:12:53.822Z,100363.72
2018-12-12T07:15:21.278Z,100357.42
2018-12-12T07:17:48.725Z,100359.77
2018-12-12T07:20:16.170Z,100360.10
2018-12-12T07:22:43.642Z,100363.39
2018-12-12T07:25:11.069Z,100368.50
2018-12-12T07:27:38.541Z,100359.95
2018-12-12T07:30:05.961Z,100361.27
2018-12-12T07:32:34.390Z,100366.92
2018-12-12T07:35:01.953Z,100364.53
2018-12-12T07:37:29.396Z,100374.93
2018-12-12T07:39:56.833Z,100377.03
2018-12-12T07:42:24.280Z,100372.20
2018-12-12T07:44:51.703Z,100378.39
2018-12-12T07:47:19.147Z,100383.95
2018-12-12T07:49:46.588Z,100381.16
2018-12-12T07:52:14.041Z,100386.50
2018-12-12T07:54:42.470Z,100391.73
2018-12-12T07:57:09.901Z,100393.25
2018-12-12T07:59:37.361Z,100398.20
2018-12-12T08:02:04.777Z,100397.64
2018-12-12T08:04:32.208Z,100404.78
2018-12-12T08:06:59.621Z,100404.06
2018-12-12T08:09:27.059Z,100393.98
2018-12-12T08:11:54.517Z,100406.00
2018-12-12T08:14:21.945Z,100398.86
2018-12-12T08:16:49.390Z,100402.83
2018-12-12T08:19:16.826Z,100397.75
2018-12-12T08:21:44.254Z,100402.83
2018-12-12T08:24:11.715Z,100408.36
2018-12-12T08:26:39.192Z,100410.95
2018-12-12T08:29:06.638Z,100409.13
2018-12-12T08:31:34.121Z,100410.81
2018-12-12T08:34:01.556Z,100416.55
2018-12-12T08:36:29.015Z,100409.84
2018-12-12T08:38:56.505Z,100417.66
2018-12-12T08:41:23.922Z,100416.67
2018-12-12T08:43:51.361Z,100414.47
2018-12-12T08:46:18.854Z,100416.00
2018-12-12T08:48:46.312Z,100414.64
2018-12-12T08:51:13.882Z,100417.39
2018-12-12T08:53:41.314Z,100427.52
2018-12-12T08:56:08.788Z,100429.59
2018-12-12T08:58:36.229Z,100430.25
2018-12-12T09:01:03.681Z,100430.44
2018-12-12T09:03:31.932Z,100425.37
2018-12-12T09:05:59.353Z,100418.11
2018-12-12T09:08:26.809Z,100420.03
2018-12-12T09:10:54.253Z,100425.88
2018-12-12T09:13:21.706Z,100427.73
2018-12-12T09:15:49.218Z,100425.92
2018-12-12T09:18:16.699Z,100427.27
2018-12-12T09:20:44.119Z,100430.84
2018-12-12T09:23:11.559Z,100432.50
2018-12-12T09:25:39.715Z,100434.66
2018-12-12T09:28:07.167Z,100429.05
2018-12-12T09:30:34.578Z,100431.67
2018-12-12T09:33:02.017Z,100428.81
2018-12-12T09:35:29.463Z,100432.40
2018-12-12T09:37:56.916Z,100434.53
2018-12-12T09:40:24.451Z,100439.87
2018-12-12T09:42:51.879Z,100441.89
2018-12-12T09:45:21.851Z,100438.20
2018-12-12T09:47:46.837Z,100446.52
2018-12-12T09:50:14.286Z,100437.73
2018-12-12T09:52:41.717Z,100443.67
2018-12-12T09:55:09.220Z,100442.31
2018-12-12T09:57:37.069Z,100432.57
2018-12-12T10:00:04.513Z,100439.55
2018-12-12T10:02:31.957Z,100437.53
2018-12-12T10:04:59.384Z,100430.98
2018-12-12T10:07:26.823Z,100429.22
2018-12-12T10:09:54.257Z,100436.66
2018-12-12T10:12:21.701Z,100434.06
2018-12-12T10:14:49.143Z,100442.72
2018-12-12T10:17:16.637Z,100437.03
2018-12-12T10:19:44.021Z,100437.39
2018-12-12T10:22:11.480Z,100437.81
2018-12-12T10:24:38.908Z,100434.70
2018-12-12T10:27:06.340Z,100434.03
2018-12-12T10:29:33.773Z,100436.28
2018-12-12T10:32:01.217Z,100436.09
2018-12-12T10:34:29.557Z,100430.17
2018-12-12T10:36:57.017Z,100426.58
2018-12-12T10:39:24.469Z,100422.73
2018-12-12T10:41:51.939Z,100422.89
2018-12-12T10:44:19.372Z,100419.61
2018-12-12T10:46:46.819Z,100417.97
2018-12-12T10:49:14.269Z,100418.58
2018-12-12T10:51:41.702Z,100420.59
2018-12-12T10:54:09.143Z,100413.73
2018-12-12T10:56:36.598Z,100420.88
2018-12-12T10:59:04.068Z,100416.73
2018-12-12T11:01:46.426Z,100419.77
2018-12-12T11:04:13.859Z,100416.74
2018-12-12T11:06:41.322Z,100415.98
2018-12-12T11:09:08.834Z,100410.69
2018-12-12T11:11:36.290Z,100410.20
2018-12-12T11:14:03.705Z,100407.95
2018-12-12T11:16:31.220Z,100405.47
2018-12-12T11:18:58.655Z,100401.28
2018-12-12T11:21:26.078Z,100403.16
2018-12-12T11:23:53.529Z,100397.88
2018-12-12T11:26:20.945Z,100401.45
2018-12-12T11:28:50.282Z,100392.64
2018-12-12T11:31:17.723Z,100388.85
2018-12-12T11:33:50.468Z,100388.18
2018-12-12T11:36:12.665Z,100389.63
2018-12-12T11:38:40.096Z,100393.30
2018-12-12T11:41:08.424Z,100388.47
2018-12-12T11:43:35.948Z,100391.28
2018-12-12T11:46:03.407Z,100388.36
2018-12-12T11:48:30.857Z,100383.13
2018-12-12T11:50:58.348Z,100385.05
2018-12-12T11:53:25.800Z,100382.65
2018-12-12T11:55:53.262Z,100378.03
2018-12-12T11:58:20.703Z,100373.12
2018-12-12T12:00:48.148Z,100376.98
2018-12-12T12:03:15.569Z,100371.09
2018-12-12T12:05:43.017Z,100364.16
2018-12-12T12:08:10.431Z,100360.34
2018-12-12T12:10:37.868Z,100361.30
2018-12-12T12:13:05.294Z,100362.19
2018-12-12T12:15:32.745Z,100356.99
2018-12-12T12:18:00.180Z,100353.08
2018-12-12T12:20:27.629Z,100350.72
2018-12-12T12:22:55.080Z,100349.95
2018-12-12T12:25:22.534Z,100349.41
2018-12-12T12:27:49.987Z,100348.91
2018-12-12T12:30:17.401Z,100352.91
2018-12-12T12:32:44.843Z,100350.50
2018-12-12T12:35:13.214Z,100349.68
2018-12-12T12:37:40.701Z,100344.34
2018-12-12T12:40:08.284Z,100352.14
2018-12-12T12:42:35.702Z,100350.72
2018-12-12T12:45:03.145Z,100352.04
2018-12-12T12:47:30.645Z,100347.53
2018-12-12T12:49:58.064Z,100338.17
2018-12-12T12:52:25.502Z,100340.83
2018-12-12T12:54:52.958Z,100329.70
2018-12-12T12:57:20.373Z,100340.88
2018-12-12T12:59:47.833Z,100329.49
2018-12-12T13:02:15.257Z,100330.36
2018-12-12T13:04:42.709Z,100335.31
2018-12-12T13:07:10.139Z,100331.35
2018-12-12T13:09:38.943Z,100329.38
2018-12-12T13:12:06.122Z,100326.45
2018-12-12T13:14:33.522Z,100324.75
2018-12-12T13:17:00.931Z,100320.33
2018-12-12T13:19:28.412Z,100322.31
2018-12-12T13:21:55.865Z,100317.70
2018-12-12T13:24:23.262Z,100319.94
2018-12-12T13:26:53.673Z,100318.14
2018-12-12T13:29:18.134Z,100309.91
2018-12-12T13:31:45.612Z,100305.61
2018-12-12T13:34:16.227Z,100311.48
2018-12-12T13:36:40.505Z,100311.50
2018-12-12T13:39:07.995Z,100312.80
2018-12-12T13:41:35.437Z,100306.22
2018-12-12T13:44:02.866Z,100302.09
2018-12-12T13:46:30.327Z,100301.09
2018-12-12T13:48:57.747Z,100303.35
2018-12-12T13:51:25.162Z,100306.30
2018-12-12T13:53:52.617Z,100314.22
2018-12-12T13:56:20.051Z,100306.09
2018-12-12T13:58:47.479Z,100309.09
2018-12-12T14:01:14.933Z,100304.24
2018-12-12T14:03:42.355Z,100301.50
2018-12-12T14:06:09.783Z,100299.74
2018-12-12T14:08:37.213Z,100301.13
2018-12-12T14:11:04.658Z,100299.47
2018-12-12T14:13:32.100Z,100298.41
2018-12-12T14:15:59.515Z,100293.20
2018-12-12T14:18:26.959Z,100299.25
2018-12-12T14:20:54.398Z,100299.03
2018-12-12T14:23:21.827Z,100295.95
2018-12-12T14:25:49.269Z,100290.79
2018-12-12T14:28:18.256Z,100290.45
2018-12-12T14:30:45.741Z,100289.52
2018-12-12T14:33:13.186Z,100285.78
2018-12-12T14:35:40.613Z,100285.52
2018-12-12T14:38:08.403Z,100285.06
2018-12-12T14:40:35.822Z,100289.36
2018-12-12T14:43:03.287Z,100290.84
2018-12-12T14:45:30.711Z,100290.80
2018-12-12T14:47:58.147Z,100285.17
2018-12-12T14:50:26.444Z,100283.20
2018-12-12T14:52:53.973Z,100286.66
2018-12-12T14:55:21.391Z,100292.66
2018-12-12T14:57:48.839Z,100292.09
2018-12-12T15:00:16.263Z,100285.39
2018-12-12T15:02:43.702Z,100290.05
2018-12-12T15:05:11.205Z,100290.56
2018-12-12T15:07:38.667Z,100289.25
2018-12-12T15:10:06.122Z,100290.41
2018-12-12T15:12:33.589Z,100292.86
2018-12-12T15:15:01.053Z,100289.66
2018-12-12T15:17:28.487Z,100292.62
2018-12-12T15:19:55.933Z,100291.91
2018-12-12T15:22:23.368Z,100286.52
2018-12-12T15:24:50.849Z,100284.25
2018-12-12T15:27:18.285Z,100287.69
2018-12-12T15:29:45.699Z,100291.16
2018-12-12T15:32:13.150Z,100293.76
2018-12-12T15:34:42.425Z,100305.23
2018-12-12T15:37:08.838Z,100297.41
2018-12-12T15:39:36.337Z,100299.81
2018-12-12T15:42:03.799Z,100294.73
2018-12-12T15:44:31.239Z,100297.72
2018-12-12T15:46:58.671Z,100294.84
2018-12-12T15:49:26.106Z,100301.42
2018-12-12T15:51:53.565Z,100307.91
2018-12-12T15:54:21.024Z,100310.36
2018-12-12T15:56:48.459Z,100310.22
2018-12-12T15:59:15.909Z,100311.48
2018-12-12T16:01:43.343Z,100318.17
2018-12-12T16:04:10.791Z,100315.63
2018-12-12T16:06:38.212Z,100313.25
2018-12-12T16:09:05.748Z,100314.12
2018-12-12T16:11:33.149Z,100317.58
2018-12-12T16:14:00.606Z,100312.02
2018-12-12T16:16:28.030Z,100312.80
2018-12-12T16:18:55.473Z,100307.00
2018-12-12T16:21:22.911Z,100307.98
2018-12-12T16:23:51.568Z,100306.27
2018-12-12T16:26:19.098Z,100302.80
2018-12-12T16:28:46.508Z,100299.54
2018-12-12T16:31:13.952Z,100297.23
2018-12-12T16:33:41.385Z,100303.78
2018-12-12T16:36:08.836Z,100299.92
2018-12-12T16:38:36.257Z,100307.48
2018-12-12T16:41:03.751Z,100307.03
2018-12-12T16:43:31.200Z,100309.09
2018-12-12T16:45:59.094Z,100316.70
2018-12-12T16:48:26.565Z,100309.62
2018-12-12T16:50:54.005Z,100312.98
2018-12-12T16:53:21.474Z,100310.45
2018-12-12T16:55:48.911Z,100322.41
2018-12-12T16:58:16.393Z,100316.89
2018-12-12T17:00:43.853Z,100320.59
2018-12-12T17:03:11.277Z,100321.03
2018-12-12T17:05:38.726Z,100323.81
2018-12-12T17:08:06.158Z,100310.50
2018-12-12T17:10:33.618Z,100313.12
2018-12-12T17:13:01.054Z,100312.94
2018-12-12T17:15:28.497Z,100312.11
2018-12-12T17:17:55.923Z,100317.19
2018-12-12T17:20:23.396Z,100319.43
2018-12-12T17:22:50.835Z,100317.14
2018-12-12T17:25:18.373Z,100317.57
2018-12-12T17:27:45.795Z,100324.55
2018-12-12T17:30:13.274Z,100319.53
2018-12-12T17:32:40.709Z,100317.34
2018-12-12T17:35:08.992Z,100320.02
2018-12-12T17:37:35.645Z,100318.94
2018-12-12T17:40:03.126Z,100314.36
2018-12-12T17:42:30.553Z,100307.20
2018-12-12T17:44:58.065Z,100302.67
2018-12-12T17:47:25.507Z,100304.42
2018-12-12T17:49:52.919Z,100303.93
2018-12-12T17:52:20.354Z,100295.92
2018-12-12T17:54:47.780Z,100303.73
2018-12-12T17:57:15.210Z,100303.97
2018-12-12T17:59:42.622Z,100308.66
2018-12-12T18:02:10.068Z,100306.36
2018-12-12T18:04:37.483Z,100307.04
2018-12-12T18:07:04.955Z,100310.17
2018-12-12T18:09:32.403Z,100302.08
2018-12-12T18:11:59.843Z,100301.77
2018-12-12T18:14:27.307Z,100296.46
2018-12-12T18:16:54.743Z,100298.21
2018-12-12T18:19:22.172Z,100299.23
2018-12-12T18:21:49.638Z,100304.90
2018-12-12T18:24:17.060Z,100290.75
2018-12-12T18:26:44.487Z,100294.59
2018-12-12T18:29:11.951Z,100292.90
2018-12-12T18:31:39.366Z,100292.66
2018-12-12T18:34:06.795Z,100289.38
2018-12-12T18:36:34.262Z,100291.97
2018-12-12T18:39:01.701Z,100293.33
2018-12-12T18:41:29.155Z,100284.64
2018-12-12T18:43:56.609Z,100284.84
2018-12-12T18:46:24.269Z,100283.09
2018-12-12T18:48:51.709Z,100283.43
2018-12-12T18:51:19.124Z,100288.25
2018-12-12T18:53:46.555Z,100292.26
2018-12-12T18:56:13.985Z,100288.44
2018-12-12T18:58:41.438Z,100282.83
2018-12-12T19:01:08.869Z,100272.81
2018-12-12T19:03:36.333Z,100278.91
2018-12-12T19:06:03.774Z,100279.84
2018-12-12T19:08:31.205Z,100278.74
2018-12-12T19:10:58.636Z,100284.90
2018-12-12T19:13:26.092Z,100279.03
2018-12-12T19:15:53.529Z,100277.96
2018-12-12T19:18:20.957Z,100275.88
2018-12-12T19:20:48.404Z,100272.33
2018-12-12T19:23:15.841Z,100276.87
2018-12-12T19:25:43.371Z,100284.97
2018-12-12T19:28:10.746Z,100271.64
2018-12-12T19:30:38.197Z,100277.59
2018-12-12T19:33:05.626Z,100281.88
2018-12-12T19:35:34.865Z,100271.34
2018-12-12T19:38:00.510Z,100275.77
2018-12-12T19:40:27.962Z,100275.25
2018-12-12T19:42:55.375Z,100272.61
2018-12-12T19:45:24.203Z,100282.42
2018-12-12T19:47:51.809Z,100277.48
2018-12-12T19:50:19.249Z,100284.52
2018-12-12T19:52:46.706Z,100285.78
2018-12-12T19:55:14.525Z,100281.67
2018-12-12T19:57:42.307Z,100286.95
2018-12-12T20:00:09.949Z,100284.86
2018-12-12T20:02:37.463Z,100284.37
2018-12-12T20:05:04.900Z,100277.82
2018-12-12T20:07:32.389Z,100281.13
2018-12-12T20:09:59.802Z,100287.98
2018-12-12T20:12:27.289Z,100287.23
2018-12-12T20:14:54.719Z,100280.40
2018-12-12T20:17:22.146Z,100280.93
2018-12-12T20:19:49.595Z,100288.63
2018-12-12T20:22:17.429Z,100287.50
2018-12-12T20:24:45.008Z,100287.09
2018-12-12T20:27:12.425Z,100281.30
2018-12-12T20:29:39.881Z,100289.61
2018-12-12T20:32:07.317Z,100286.85
2018-12-12T20:34:34.755Z,100286.64
2018-12-12T20:37:02.208Z,100282.60
2018-12-12T20:39:29.655Z,100281.84
2018-12-12T20:41:57.092Z,100285.77
2018-12-12T20:44:25.449Z,100285.50
2018-12-12T20:46:52.964Z,100280.56
2018-12-12T20:49:20.383Z,100289.20
2018-12-12T20:51:47.836Z,100288.33
2018-12-12T20:54:15.274Z,100286.92
2018-12-12T20:56:42.710Z,100286.63
2018-12-12T20:59:10.145Z,100284.63
2018-12-12T21:01:37.601Z,100289.73
2018-12-12T21:04:05.043Z,100287.16
2018-12-12T21:06:33.453Z,100282.22
2018-12-12T21:09:00.980Z,100282.31
2018-12-12T21:11:28.406Z,100279.79
2018-12-12T21:13:55.870Z,100277.63
2018-12-12T21:16:23.303Z,100273.61
2018-12-12T21:18:50.749Z,100272.94
2018-12-12T21:21:18.175Z,100274.31
2018-12-12T21:23:45.620Z,100268.39
2018-12-12T21:26:13.045Z,100273.06
2018-12-12T21:28:40.483Z,100269.28
2018-12-12T21:31:07.907Z,100268.61
2018-12-12T21:33:35.360Z,100261.27
2018-12-12T21:36:02.793Z,100252.96
2018-12-12T21:38:30.251Z,100257.10
2018-12-12T21:40:57.735Z,100258.67
2018-12-12T21:43:25.240Z,100256.58
2018-12-12T21:45:52.694Z,100256.66
2018-12-12T21:48:20.172Z,100257.80
2018-12-12T21:50:48.068Z,100250.66
2018-12-12T21:53:15.545Z,100248.42
2018-12-12T21:55:42.989Z,100249.63
2018-12-12T21:58:10.442Z,100254.09
2018-12-12T22:00:37.899Z,100260.34
2018-12-12T22:03:05.312Z,100259.23
2018-12-12T22:05:32.754Z,100254.25
2018-12-12T22:08:00.231Z,100259.13
2018-12-12T22:10:27.672Z,100259.12
2018-12-12T22:12:56.040Z,100251.06
2018-12-12T22:15:23.555Z,100252.26
2018-12-12T22:17:50.988Z,100246.33
2018-12-12T22:20:18.407Z,100241.76
2018-12-12T22:22:45.861Z,100242.30
2018-12-12T22:25:13.380Z,100231.52
2018-12-12T22:27:40.831Z,100234.72
2018-12-12T22:30:08.543Z,100246.55
2018-12-12T22:32:36.057Z,100238.73
2018-12-12T22:35:03.532Z,100243.61
2018-12-12T22:37:30.985Z,100242.35
2018-12-12T22:39:58.462Z,100236.63
2018-12-12T22:42:25.915Z,100229.89
2018-12-12T22:44:53.353Z,100229.39
2018-12-12T22:47:20.823Z,100231.38
2018-12-12T22:49:48.269Z,100230.16
2018-12-12T22:52:15.734Z,100229.02
2018-12-12T22:54:43.164Z,100233.41
2018-12-12T22:57:10.633Z,100233.84
2018-12-12T22:59:38.057Z,100228.73
2018-12-12T23:02:05.494Z,100233.28
2018-12-12T23:04:32.954Z,100232.53
2018-12-12T23:07:00.388Z,100229.11
2018-12-12T23:09:28.671Z,100232.78
2018-12-12T23:11:56.221Z,100232.69
2018-12-12T23:14:23.685Z,100230.42
2018-12-12T23:16:51.147Z,100229.02
2018-12-12T23:19:18.585Z,100223.45
2018-12-12T23:21:46.035Z,100216.44
2018-12-12T23:24:13.498Z,100228.55
2018-12-12T23:26:40.963Z,100219.97
2018-12-12T23:29:08.492Z,100217.90
2018-12-12T23:31:36.824Z,100211.79
2018-12-12T23:34:04.343Z,100211.51
2018-12-12T23:36:31.779Z,100204.83
2018-12-12T23:38:59.235Z,100207.03
2018-12-12T23:41:26.708Z,100203.95
2018-12-12T23:43:54.143Z,100199.38
2018-12-12T23:46:21.596Z,100195.45
2018-12-12T23:48:49.041Z,100194.75
2018-12-12T23:51:16.474Z,100190.03
2018-12-12T23:53:43.893Z,100187.51
2018-12-12T23:56:11.306Z,100190.75
2018-12-12T23:58:38.755Z,100186.53
